Time,TemperatureF,DewpointF,PressureIn,WindDirection,WindDirectionDegrees,WindSpeedMPH,WindSpeedGustMPH,Humidity,HourlyPrecipIn,Conditions,Clouds,dailyrainin,SolarRadiationWatts/m^2,SoftwareType,DateUTC
2013-02-19 00:01:00,11.0,7.0,-100.00,North,11,5.0,7.0,84,0.00,,,0.00,0.000000,,2013-02-19 07:01:00,
2013-02-19 00:11:00,11.0,7.0,-100.00,North,11,5.0,7.0,84,0.00,,,0.00,0.000000,,2013-02-19 07:11:00,
2013-02-19 00:21:00,11.0,7.0,-100.00,North,11,5.0,7.0,84,0.00,,,0.00,0.000000,,2013-02-19 07:21:00,
2013-02-19 00:42:00,14.0,10.0,-100.00,NNE,19,4.0,8.0,82,0.00,,,0.00,0.000000,,2013-02-19 07:42:00,
2013-02-19 00:52:00,14.0,10.0,-100.00,NNE,19,4.0,8.0,82,0.00,,,0.00,0.000000,,2013-02-19 07:52:00,
2013-02-19 01:01:00,14.0,10.0,-100.00,NNE,19,4.0,8.0,82,0.00,,,0.00,0.000000,,2013-02-19 08:01:00,
2013-02-19 01:11:00,14.0,10.0,-100.00,NNE,19,4.0,8.0,82,0.00,,,0.00,0.000000,,2013-02-19 08:11:00,
2013-02-19 01:21:00,14.0,10.0,-100.00,NNE,19,4.0,8.0,82,0.00,,,0.00,0.000000,,2013-02-19 08:21:00,
2013-02-19 01:42:00,14.0,10.0,-100.00,NNE,26,5.0,7.0,82,0.00,,,0.00,0.000000,,2013-02-19 08:42:00,
2013-02-19 01:52:00,14.0,10.0,-100.00,NNE,26,5.0,7.0,82,0.00,,,0.00,0.000000,,2013-02-19 08:52:00,
2013-02-19 02:01:00,14.0,10.0,-100.00,NNE,26,5.0,7.0,82,0.00,,,0.00,0.000000,,2013-02-19 09:01:00,
2013-02-19 02:11:00,14.0,10.0,-100.00,NNE,26,5.0,7.0,82,0.00,,,0.00,0.000000,,2013-02-19 09:11:00,
2013-02-19 02:21:00,14.0,10.0,-100.00,NNE,26,5.0,7.0,82,0.00,,,0.00,0.000000,,2013-02-19 09:21:00,
2013-02-19 02:42:00,16.0,10.0,-100.00,NNE,16,4.0,8.0,78,0.00,,,0.00,0.000000,,2013-02-19 09:42:00,
2013-02-19 02:53:00,16.0,10.0,-100.00,NNE,16,4.0,8.0,78,0.00,,,0.00,0.000000,,2013-02-19 09:53:00,
2013-02-19 03:01:00,16.0,10.0,-100.00,NNE,16,4.0,8.0,78,0.00,,,0.00,0.000000,,2013-02-19 10:01:00,
2013-02-19 03:11:00,16.0,10.0,-100.00,NNE,16,4.0,8.0,78,0.00,,,0.00,0.000000,,2013-02-19 10:11:00,
2013-02-19 03:21:00,16.0,10.0,-100.00,NNE,16,4.0,8.0,78,0.00,,,0.00,0.000000,,2013-02-19 10:21:00,
2013-02-19 03:42:00,16.0,9.0,-100.00,North,358,2.0,7.0,73,0.00,,,0.00,0.000000,,2013-02-19 10:42:00,
2013-02-19 03:52:00,16.0,9.0,-100.00,North,358,2.0,7.0,73,0.00,,,0.00,0.000000,,2013-02-19 10:52:00,
2013-02-19 04:01:00,16.0,9.0,-100.00,North,358,2.0,7.0,73,0.00,,,0.00,0.000000,,2013-02-19 11:01:00,
2013-02-19 04:11:00,16.0,9.0,-100.00,North,358,2.0,7.0,73,0.00,,,0.00,0.000000,,2013-02-19 11:11:00,
2013-02-19 04:21:00,16.0,9.0,-100.00,North,358,2.0,7.0,73,0.00,,,0.00,0.000000,,2013-02-19 11:21:00,
2013-02-19 04:42:00,16.0,8.0,-100.00,NNE,24,5.0,8.0,71,0.00,,,0.00,0.000000,,2013-02-19 11:42:00,
2013-02-19 04:52:00,16.0,8.0,-100.00,NNE,24,5.0,8.0,71,0.00,,,0.00,0.000000,,2013-02-19 11:52:00,
2013-02-19 05:01:00,16.0,8.0,-100.00,NNE,24,5.0,8.0,71,0.00,,,0.00,0.000000,,2013-02-19 12:01:00,
2013-02-19 05:12:00,16.0,8.0,-100.00,NNE,24,5.0,8.0,71,0.00,,,0.00,0.000000,,2013-02-19 12:12:00,
2013-02-19 05:21:00,16.0,8.0,-100.00,NNE,24,5.0,8.0,71,0.00,,,0.00,0.000000,,2013-02-19 12:21:00,
2013-02-19 05:42:00,15.0,7.0,-100.00,NNE,17,4.0,8.0,69,0.00,,,0.00,0.000000,,2013-02-19 12:42:00,
2013-02-19 05:52:00,15.0,7.0,-100.00,NNE,17,4.0,8.0,69,0.00,,,0.00,0.000000,,2013-02-19 12:52:00,
2013-02-19 06:02:00,15.0,7.0,-100.00,NNE,17,4.0,8.0,69,0.00,,,0.00,0.000000,,2013-02-19 13:02:00,
2013-02-19 06:11:00,15.0,7.0,-100.00,NNE,17,4.0,8.0,69,0.00,,,0.00,0.000000,,2013-02-19 13:11:00,
2013-02-19 06:22:00,15.0,7.0,-100.00,NNE,17,4.0,8.0,69,0.00,,,0.00,0.000000,,2013-02-19 13:22:00,
2013-02-19 06:42:00,16.0,6.0,-100.00,North,1,1.0,7.0,64,0.00,,,0.00,0.000000,,2013-02-19 13:42:00,
2013-02-19 06:52:00,16.0,6.0,-100.00,North,1,1.0,7.0,64,0.00,,,0.00,0.000000,,2013-02-19 13:52:00,
2013-02-19 07:01:00,16.0,6.0,-100.00,North,1,1.0,7.0,64,0.00,,,0.00,0.000000,,2013-02-19 14:01:00,
2013-02-19 07:11:00,16.0,6.0,-100.00,North,1,1.0,7.0,64,0.00,,,0.00,0.000000,,2013-02-19 14:11:00,
2013-02-19 07:21:00,16.0,6.0,-100.00,North,1,1.0,7.0,64,0.00,,,0.00,0.000000,,2013-02-19 14:21:00,
2013-02-19 07:42:00,17.0,6.0,-100.00,NW,319,0.0,7.0,61,0.00,,,0.00,0.000000,,2013-02-19 14:42:00,
2013-02-19 07:52:00,17.0,6.0,-100.00,NW,319,0.0,7.0,61,0.00,,,0.00,0.000000,,2013-02-19 14:52:00,
2013-02-19 08:01:00,17.0,6.0,-100.00,NW,319,0.0,7.0,61,0.00,,,0.00,0.000000,,2013-02-19 15:01:00,
2013-02-19 08:11:00,17.0,6.0,-100.00,NW,319,0.0,7.0,61,0.00,,,0.00,0.000000,,2013-02-19 15:11:00,
2013-02-19 08:21:00,17.0,6.0,-100.00,NW,319,0.0,7.0,61,0.00,,,0.00,0.000000,,2013-02-19 15:21:00,
2013-02-19 08:42:00,22.0,8.0,-100.00,NNE,20,0.0,5.0,54,0.00,,,0.00,57.000000,,2013-02-19 15:42:00,
2013-02-19 08:52:00,22.0,8.0,-100.00,NNE,20,0.0,5.0,54,0.00,,,0.00,57.000000,,2013-02-19 15:52:00,
2013-02-19 09:01:00,22.0,8.0,-100.00,NNE,20,0.0,5.0,54,0.00,,,0.00,57.000000,,2013-02-19 16:01:00,
2013-02-19 09:11:00,22.0,8.0,-100.00,NNE,20,0.0,5.0,54,0.00,,,0.00,57.000000,,2013-02-19 16:11:00,
2013-02-19 09:21:00,22.0,8.0,-100.00,NNE,20,0.0,5.0,54,0.00,,,0.00,57.000000,,2013-02-19 16:21:00,
2013-02-19 09:42:00,30.0,8.0,-100.00,ENE,75,0.0,5.0,38,0.00,,,0.00,150.000000,,2013-02-19 16:42:00,
2013-02-19 09:52:00,30.0,8.0,-100.00,ENE,75,0.0,5.0,38,0.00,,,0.00,150.000000,,2013-02-19 16:52:00,
2013-02-19 10:01:00,30.0,8.0,-100.00,ENE,75,0.0,5.0,38,0.00,,,0.00,150.000000,,2013-02-19 17:01:00,
2013-02-19 10:21:00,30.0,8.0,-100.00,ENE,75,0.0,5.0,38,0.00,,,0.00,150.000000,,2013-02-19 17:21:00,
2013-02-19 10:42:00,33.0,9.0,-100.00,ESE,116,3.0,6.0,36,0.00,,,0.00,266.000000,,2013-02-19 17:42:00,
2013-02-19 10:52:00,33.0,9.0,-100.00,ESE,116,3.0,6.0,36,0.00,,,0.00,266.000000,,2013-02-19 17:52:00,
2013-02-19 11:01:00,33.0,9.0,-100.00,ESE,116,3.0,6.0,36,0.00,,,0.00,266.000000,,2013-02-19 18:01:00,
2013-02-19 11:42:00,35.0,11.0,-100.00,SSW,198,6.0,14.0,36,-99.99,,,0.00,450.000000,,2013-02-19 18:42:00,
2013-02-19 11:52:00,35.0,11.0,-100.00,SSW,198,6.0,14.0,36,-99.99,,,0.00,450.000000,,2013-02-19 18:52:00,
2013-02-19 12:01:00,35.0,11.0,-100.00,SSW,198,6.0,14.0,36,-99.99,,,0.00,450.000000,,2013-02-19 19:01:00,
2013-02-19 12:42:00,32.0,16.0,-100.00,South,190,7.0,13.0,52,0.00,,,0.00,474.000000,,2013-02-19 19:42:00,
2013-02-19 12:52:00,32.0,16.0,-100.00,South,190,7.0,13.0,52,0.00,,,0.00,474.000000,,2013-02-19 19:52:00,
2013-02-19 13:01:00,32.0,16.0,-100.00,South,190,7.0,13.0,52,0.00,,,0.00,474.000000,,2013-02-19 20:01:00,
2013-02-19 13:11:00,32.0,16.0,-100.00,South,190,7.0,13.0,52,0.00,,,0.00,474.000000,,2013-02-19 20:11:00,
2013-02-19 13:21:00,32.0,16.0,-100.00,South,190,7.0,13.0,52,0.00,,,0.00,474.000000,,2013-02-19 20:21:00,
2013-02-19 13:42:00,34.0,23.0,-100.00,ESE,103,0.0,12.0,65,0.00,,,0.00,367.000000,,2013-02-19 20:42:00,
2013-02-19 13:52:00,34.0,23.0,-100.00,ESE,103,0.0,12.0,65,0.00,,,0.00,367.000000,,2013-02-19 20:52:00,
2013-02-19 14:01:00,34.0,23.0,-100.00,ESE,103,0.0,12.0,65,0.00,,,0.00,367.000000,,2013-02-19 21:01:00,
2013-02-19 14:11:00,34.0,23.0,-100.00,ESE,103,0.0,12.0,65,0.00,,,0.00,367.000000,,2013-02-19 21:11:00,
2013-02-19 14:21:00,34.0,23.0,-100.00,ESE,103,0.0,12.0,65,0.00,,,0.00,367.000000,,2013-02-19 21:21:00,
2013-02-19 14:42:00,32.0,25.0,-100.00,NNE,13,3.0,7.0,75,0.00,,,0.00,383.000000,,2013-02-19 21:42:00,
2013-02-19 14:52:00,32.0,25.0,-100.00,NNE,13,3.0,7.0,75,0.00,,,0.00,383.000000,,2013-02-19 21:52:00,
2013-02-19 15:01:00,32.0,25.0,-100.00,NNE,13,3.0,7.0,75,0.00,,,0.00,383.000000,,2013-02-19 22:01:00,
2013-02-19 15:11:00,32.0,25.0,-100.00,NNE,13,3.0,7.0,75,0.00,,,0.00,383.000000,,2013-02-19 22:11:00,
2013-02-19 15:21:00,32.0,25.0,-100.00,NNE,13,3.0,7.0,75,0.00,,,0.00,383.000000,,2013-02-19 22:21:00,
2013-02-19 15:42:00,32.0,25.0,-100.00,NNE,30,2.0,10.0,74,0.00,,,0.00,365.000000,,2013-02-19 22:42:00,
2013-02-19 15:52:00,32.0,25.0,-100.00,NNE,30,2.0,10.0,74,0.00,,,0.00,365.000000,,2013-02-19 22:52:00,
2013-02-19 16:01:00,32.0,25.0,-100.00,NNE,30,2.0,10.0,74,0.00,,,0.00,365.000000,,2013-02-19 23:01:00,
2013-02-19 16:11:00,32.0,25.0,-100.00,NNE,30,2.0,10.0,74,0.00,,,0.00,365.000000,,2013-02-19 23:11:00,
2013-02-19 16:21:00,32.0,25.0,-100.00,NNE,30,2.0,10.0,74,0.00,,,0.00,365.000000,,2013-02-19 23:21:00,
2013-02-19 16:42:00,33.0,26.0,-100.00,East,95,2.0,5.0,75,0.00,,,0.00,265.000000,,2013-02-19 23:42:00,
2013-02-19 16:52:00,33.0,26.0,-100.00,East,95,2.0,5.0,75,0.00,,,0.00,265.000000,,2013-02-19 23:52:00,
2013-02-19 17:01:00,33.0,26.0,-100.00,East,95,2.0,5.0,75,0.00,,,0.00,265.000000,,2013-02-20 00:01:00,
2013-02-19 17:11:00,33.0,26.0,-100.00,East,95,2.0,5.0,75,0.00,,,0.00,265.000000,,2013-02-20 00:11:00,
2013-02-19 17:21:00,33.0,26.0,-100.00,East,95,2.0,5.0,75,0.00,,,0.00,265.000000,,2013-02-20 00:21:00,
2013-02-19 17:42:00,29.0,25.0,-100.00,ENE,71,5.0,7.0,84,0.00,,,0.00,152.000000,,2013-02-20 00:42:00,
2013-02-19 17:52:00,29.0,25.0,-100.00,ENE,71,5.0,7.0,84,0.00,,,0.00,152.000000,,2013-02-20 00:52:00,
2013-02-19 18:02:00,29.0,25.0,-100.00,ENE,71,5.0,7.0,84,0.00,,,0.00,152.000000,,2013-02-20 01:02:00,
2013-02-19 18:11:00,29.0,25.0,-100.00,ENE,71,5.0,7.0,84,0.00,,,0.00,152.000000,,2013-02-20 01:11:00,
2013-02-19 18:21:00,29.0,25.0,-100.00,ENE,71,5.0,7.0,84,0.00,,,0.00,152.000000,,2013-02-20 01:21:00,
2013-02-19 18:42:00,28.0,25.0,-100.00,NE,55,1.0,7.0,90,0.00,,,0.00,12.000000,,2013-02-20 01:42:00,
2013-02-19 18:52:00,28.0,25.0,-100.00,NE,55,1.0,7.0,90,0.00,,,0.00,12.000000,,2013-02-20 01:52:00,
2013-02-19 19:01:00,28.0,25.0,-100.00,NE,55,1.0,7.0,90,0.00,,,0.00,12.000000,,2013-02-20 02:01:00,
2013-02-19 19:11:00,28.0,25.0,-100.00,NE,55,1.0,7.0,90,0.00,,,0.00,12.000000,,2013-02-20 02:11:00,
2013-02-19 19:21:00,28.0,25.0,-100.00,NE,55,1.0,7.0,90,0.00,,,0.00,12.000000,,2013-02-20 02:21:00,
2013-02-19 19:42:00,28.0,26.0,-100.00,NE,45,3.0,5.0,91,0.00,,,0.00,0.000000,,2013-02-20 02:42:00,
2013-02-19 19:52:00,28.0,26.0,-100.00,NE,45,3.0,5.0,91,0.00,,,0.00,0.000000,,2013-02-20 02:52:00,
2013-02-19 20:01:00,28.0,26.0,-100.00,NE,45,3.0,5.0,91,0.00,,,0.00,0.000000,,2013-02-20 03:01:00,
2013-02-19 20:12:00,28.0,26.0,-100.00,NE,45,3.0,5.0,91,0.00,,,0.00,0.000000,,2013-02-20 03:12:00,
2013-02-19 20:21:00,28.0,26.0,-100.00,NE,45,3.0,5.0,91,0.00,,,0.00,0.000000,,2013-02-20 03:21:00,
2013-02-19 20:42:00,29.0,26.0,-100.00,NE,40,4.0,6.0,88,0.00,,,0.00,0.000000,,2013-02-20 03:42:00,
2013-02-19 20:52:00,29.0,26.0,-100.00,NE,40,4.0,6.0,88,0.00,,,0.00,0.000000,,2013-02-20 03:52:00,
2013-02-19 21:01:00,29.0,26.0,-100.00,NE,40,4.0,6.0,88,0.00,,,0.00,0.000000,,2013-02-20 04:01:00,
2013-02-19 21:11:00,29.0,26.0,-100.00,NE,40,4.0,6.0,88,0.00,,,0.00,0.000000,,2013-02-20 04:11:00,
2013-02-19 21:21:00,29.0,26.0,-100.00,NE,40,4.0,6.0,88,0.00,,,0.00,0.000000,,2013-02-20 04:21:00,
2013-02-19 21:42:00,25.0,21.0,-100.00,NE,36,4.0,7.0,86,0.00,,,0.00,0.000000,,2013-02-20 04:42:00,
2013-02-19 21:52:00,25.0,21.0,-100.00,NE,36,4.0,7.0,86,0.00,,,0.00,0.000000,,2013-02-20 04:52:00,
2013-02-19 22:02:00,25.0,21.0,-100.00,NE,36,4.0,7.0,86,0.00,,,0.00,0.000000,,2013-02-20 05:02:00,
2013-02-19 22:12:00,25.0,21.0,-100.00,NE,36,4.0,7.0,86,0.00,,,0.00,0.000000,,2013-02-20 05:12:00,
2013-02-19 22:22:00,25.0,21.0,-100.00,NE,36,4.0,7.0,86,0.00,,,0.00,0.000000,,2013-02-20 05:22:00,
2013-02-19 22:43:00,24.0,20.0,-100.00,NNE,26,6.0,9.0,86,0.00,,,0.00,0.000000,,2013-02-20 05:43:00,
2013-02-19 22:52:00,24.0,20.0,-100.00,NNE,26,6.0,9.0,86,0.00,,,0.00,0.000000,,2013-02-20 05:52:00,
2013-02-19 23:01:00,24.0,20.0,-100.00,NNE,26,6.0,9.0,86,0.00,,,0.00,0.000000,,2013-02-20 06:01:00,
2013-02-19 23:11:00,24.0,20.0,-100.00,NNE,26,6.0,9.0,86,0.00,,,0.00,0.000000,,2013-02-20 06:11:00,
2013-02-19 23:21:00,24.0,20.0,-100.00,NNE,26,6.0,9.0,86,0.00,,,0.00,0.000000,,2013-02-20 06:21:00,
2013-02-19 23:42:00,25.0,21.0,-100.00,NNE,21,7.0,10.0,84,0.00,,,0.00,0.000000,,2013-02-20 06:42:00,
2013-02-19 23:52:00,25.0,21.0,-100.00,NNE,21,7.0,10.0,84,0.00,,,0.00,0.000000,,2013-02-20 06:52:00,